Longview, WA (98632)

3:44 AM PST on February 11, 2016 (GMT -0800)
Island Dr | | Change Station
CLOSE
Current Station
Personal Weather Station
Location: Longview, WA
Elevation: 10 ft
Nearby Weather Stations

Elev 10 ft 46.16 °N, 123.03 °W | Updated 2 seconds ago

Overcast
Overcast
49.3 °F
Feels Like 49 °F
N
0.0
Wind Variable Wind from NE
Gusts 0.0 mph

Today
High -- | Low -- °F
--% Chance of Precip.
Yesterday
High -- | Low -- °F
Precip. -- in
Pressure 30.21 in
Visibility 10.0 miles
Clouds Scattered Clouds 11000 ft
Windchill 49 °F
Dew Point 48 °F
Humidity 96%
Rainfall 0.00 in
Snow Depth Not available.
7:21 AM 5:31 PM
Waxing Crescent, 11% visible
METAR KKLS 111135Z AUTO 00000KT 10SM SCT110 09/07 A3021 RMK AO1
Pressure 30.21 in
Visibility 10.0 miles
Clouds Scattered Clouds 11000 ft
Windchill 49 °F
Dew Point 48 °F
Humidity 96%
Rainfall 0.00 in
Snow Depth Not available.
7:21 AM 5:31 PM
Waxing Crescent, 11% visible
METAR KKLS 111135Z AUTO 00000KT 10SM SCT110 09/07 A3021 RMK AO1

10-Day Weather Forecast

Almanac

Astronomy

Feb. 11, 2016 Rise Set
Actual Time
Civil Twilight
Nautical Twilight
Astronomical Twilight
Moon
Length of Visible Light
Length of Day
Tomorrow will be .
, % of the Moon is Illuminated

Today's Extremes

State Highs State Lows

Community

WunderPhotos

Upload Photos

1,892,030 photos uploaded!

WunderBlog® & News

Nearby

Air Quality

  Air Quality AQ Index Pollutant
Not available.

Snow Depth

Station Depth Elevation

Earthquake Activity

City Distance Mag. Time & Date
Minimum magnitude displayed is 2.5.

Coastal Water Temperatures

Place Temperature

Stations

Nearby Weather Stations

Station Location Temp. Windchill Dew Point Humidity Wind Precip. Elev Updated Type
                   

Watches & Warnings

There are currently no watches in effect.